sensor_id;sensor_type;location;lat;lon;timestamp;P1;durP1;ratioP1;P2;durP2;ratioP2
78772;SDS011;68111;44.728;11.290;2023-12-20T00:02:14;24.77;;;13.35;;
78772;SDS011;68111;44.728;11.290;2023-12-20T00:04:41;23.65;;;13.35;;
78772;SDS011;68111;44.728;11.290;2023-12-20T00:07:08;27.55;;;14.13;;
78772;SDS011;68111;44.728;11.290;2023-12-20T00:09:35;28.10;;;13.50;;
78772;SDS011;68111;44.728;11.290;2023-12-20T00:12:02;25.67;;;13.30;;
78772;SDS011;68111;44.728;11.290;2023-12-20T00:14:29;25.30;;;12.48;;
78772;SDS011;68111;44.728;11.290;2023-12-20T00:16:56;22.67;;;12.68;;
78772;SDS011;68111;44.728;11.290;2023-12-20T00:19:23;23.30;;;12.57;;
78772;SDS011;68111;44.728;11.290;2023-12-20T00:21:50;24.42;;;12.43;;
78772;SDS011;68111;44.728;11.290;2023-12-20T00:24:17;25.08;;;12.48;;
78772;SDS011;68111;44.728;11.290;2023-12-20T00:26:44;30.05;;;13.20;;
78772;SDS011;68111;44.728;11.290;2023-12-20T00:29:11;24.10;;;12.48;;
78772;SDS011;68111;44.728;11.290;2023-12-20T00:31:38;24.30;;;12.40;;
78772;SDS011;68111;44.728;11.290;2023-12-20T00:34:04;27.10;;;12.70;;
78772;SDS011;68111;44.728;11.290;2023-12-20T00:36:32;23.00;;;11.63;;
78772;SDS011;68111;44.728;11.290;2023-12-20T00:38:59;19.75;;;11.70;;
78772;SDS011;68111;44.728;11.290;2023-12-20T00:41:25;22.30;;;11.38;;
78772;SDS011;68111;44.728;11.290;2023-12-20T00:43:52;20.90;;;11.80;;
78772;SDS011;68111;44.728;11.290;2023-12-20T00:46:19;20.65;;;10.48;;
78772;SDS011;68111;44.728;11.290;2023-12-20T00:48:46;20.17;;;10.80;;
78772;SDS011;68111;44.728;11.290;2023-12-20T00:51:13;18.23;;;10.65;;
78772;SDS011;68111;44.728;11.290;2023-12-20T00:53:40;19.98;;;9.68;;
78772;SDS011;68111;44.728;11.290;2023-12-20T00:56:07;18.95;;;9.30;;
78772;SDS011;68111;44.728;11.290;2023-12-20T00:58:34;17.80;;;10.00;;
78772;SDS011;68111;44.728;11.290;2023-12-20T01:01:01;17.90;;;9.35;;
78772;SDS011;68111;44.728;11.290;2023-12-20T01:03:29;18.60;;;9.57;;
78772;SDS011;68111;44.728;11.290;2023-12-20T01:05:56;20.70;;;10.35;;
78772;SDS011;68111;44.728;11.290;2023-12-20T01:08:23;18.58;;;9.73;;
78772;SDS011;68111;44.728;11.290;2023-12-20T01:10:49;18.92;;;9.55;;
78772;SDS011;68111;44.728;11.290;2023-12-20T01:13:16;19.25;;;9.20;;
78772;SDS011;68111;44.728;11.290;2023-12-20T01:15:43;19.48;;;9.40;;
78772;SDS011;68111;44.728;11.290;2023-12-20T01:18:10;17.60;;;10.13;;
78772;SDS011;68111;44.728;11.290;2023-12-20T01:20:40;20.20;;;10.48;;
78772;SDS011;68111;44.728;11.290;2023-12-20T01:23:07;25.77;;;10.55;;
78772;SDS011;68111;44.728;11.290;2023-12-20T01:25:33;22.88;;;10.38;;
78772;SDS011;68111;44.728;11.290;2023-12-20T01:28:00;20.15;;;10.18;;
78772;SDS011;68111;44.728;11.290;2023-12-20T01:30:29;17.33;;;9.95;;
78772;SDS011;68111;44.728;11.290;2023-12-20T01:32:56;18.70;;;9.55;;
78772;SDS011;68111;44.728;11.290;2023-12-20T01:35:23;16.70;;;9.48;;
78772;SDS011;68111;44.728;11.290;2023-12-20T01:37:50;17.10;;;9.88;;
78772;SDS011;68111;44.728;11.290;2023-12-20T01:40:17;17.38;;;10.10;;
78772;SDS011;68111;44.728;11.290;2023-12-20T01:42:44;19.85;;;9.90;;
78772;SDS011;68111;44.728;11.290;2023-12-20T01:45:10;17.90;;;9.95;;
78772;SDS011;68111;44.728;11.290;2023-12-20T01:47:37;20.08;;;9.75;;
78772;SDS011;68111;44.728;11.290;2023-12-20T01:50:04;18.05;;;9.65;;
78772;SDS011;68111;44.728;11.290;2023-12-20T01:52:34;18.25;;;9.75;;
78772;SDS011;68111;44.728;11.290;2023-12-20T01:55:01;16.25;;;9.27;;
78772;SDS011;68111;44.728;11.290;2023-12-20T01:57:30;18.45;;;9.02;;
78772;SDS011;68111;44.728;11.290;2023-12-20T01:59:58;16.48;;;8.70;;
78772;SDS011;68111;44.728;11.290;2023-12-20T02:02:25;19.15;;;9.70;;
78772;SDS011;68111;44.728;11.290;2023-12-20T02:04:53;17.10;;;8.90;;
78772;SDS011;68111;44.728;11.290;2023-12-20T02:07:21;16.13;;;9.38;;
78772;SDS011;68111;44.728;11.290;2023-12-20T02:09:49;16.67;;;8.95;;
78772;SDS011;68111;44.728;11.290;2023-12-20T02:12:17;18.90;;;10.13;;
78772;SDS011;68111;44.728;11.290;2023-12-20T02:14:45;18.52;;;9.38;;
78772;SDS011;68111;44.728;11.290;2023-12-20T02:17:11;17.73;;;9.35;;
78772;SDS011;68111;44.728;11.290;2023-12-20T02:19:38;19.13;;;9.82;;
78772;SDS011;68111;44.728;11.290;2023-12-20T02:22:09;20.90;;;9.10;;
78772;SDS011;68111;44.728;11.290;2023-12-20T02:24:37;16.80;;;8.85;;
78772;SDS011;68111;44.728;11.290;2023-12-20T02:27:07;15.70;;;8.70;;
78772;SDS011;68111;44.728;11.290;2023-12-20T02:29:35;15.48;;;8.38;;
78772;SDS011;68111;44.728;11.290;2023-12-20T02:32:02;17.95;;;8.50;;
78772;SDS011;68111;44.728;11.290;2023-12-20T02:34:29;18.27;;;9.15;;
78772;SDS011;68111;44.728;11.290;2023-12-20T02:36:56;15.52;;;8.27;;
78772;SDS011;68111;44.728;11.290;2023-12-20T02:39:23;16.38;;;7.80;;
78772;SDS011;68111;44.728;11.290;2023-12-20T02:41:50;16.92;;;8.75;;
78772;SDS011;68111;44.728;11.290;2023-12-20T02:44:17;17.88;;;8.75;;
78772;SDS011;68111;44.728;11.290;2023-12-20T02:46:43;17.80;;;9.40;;
78772;SDS011;68111;44.728;11.290;2023-12-20T02:49:11;18.15;;;9.50;;
78772;SDS011;68111;44.728;11.290;2023-12-20T02:51:38;18.67;;;9.80;;
78772;SDS011;68111;44.728;11.290;2023-12-20T02:54:05;17.02;;;9.02;;
78772;SDS011;68111;44.728;11.290;2023-12-20T02:56:33;14.85;;;8.50;;
78772;SDS011;68111;44.728;11.290;2023-12-20T02:59:00;17.25;;;9.18;;
78772;SDS011;68111;44.728;11.290;2023-12-20T03:01:28;16.52;;;9.30;;
78772;SDS011;68111;44.728;11.290;2023-12-20T03:03:56;17.67;;;9.07;;
78772;SDS011;68111;44.728;11.290;2023-12-20T03:06:24;17.17;;;8.90;;
78772;SDS011;68111;44.728;11.290;2023-12-20T03:08:51;14.88;;;8.90;;
78772;SDS011;68111;44.728;11.290;2023-12-20T03:11:18;15.63;;;8.80;;
78772;SDS011;68111;44.728;11.290;2023-12-20T03:13:45;16.25;;;8.38;;
78772;SDS011;68111;44.728;11.290;2023-12-20T03:16:12;16.05;;;8.50;;
78772;SDS011;68111;44.728;11.290;2023-12-20T03:18:40;18.70;;;9.27;;
78772;SDS011;68111;44.728;11.290;2023-12-20T03:21:07;15.00;;;8.60;;
78772;SDS011;68111;44.728;11.290;2023-12-20T03:23:34;18.30;;;9.38;;
78772;SDS011;68111;44.728;11.290;2023-12-20T03:26:01;18.05;;;9.93;;
78772;SDS011;68111;44.728;11.290;2023-12-20T03:28:28;17.67;;;9.52;;
78772;SDS011;68111;44.728;11.290;2023-12-20T03:30:55;19.98;;;9.88;;
78772;SDS011;68111;44.728;11.290;2023-12-20T03:33:22;18.77;;;9.27;;
78772;SDS011;68111;44.728;11.290;2023-12-20T03:35:49;16.38;;;9.25;;
78772;SDS011;68111;44.728;11.290;2023-12-20T03:38:16;17.75;;;9.65;;
78772;SDS011;68111;44.728;11.290;2023-12-20T03:40:42;19.10;;;10.07;;
78772;SDS011;68111;44.728;11.290;2023-12-20T03:43:09;17.95;;;10.35;;
78772;SDS011;68111;44.728;11.290;2023-12-20T03:45:36;19.75;;;10.63;;
78772;SDS011;68111;44.728;11.290;2023-12-20T03:48:03;18.48;;;10.13;;
78772;SDS011;68111;44.728;11.290;2023-12-20T03:50:31;21.15;;;10.90;;
78772;SDS011;68111;44.728;11.290;2023-12-20T03:52:58;22.42;;;11.45;;
78772;SDS011;68111;44.728;11.290;2023-12-20T03:55:24;20.02;;;10.40;;
78772;SDS011;68111;44.728;11.290;2023-12-20T03:57:51;20.55;;;10.70;;
78772;SDS011;68111;44.728;11.290;2023-12-20T04:00:18;21.45;;;11.43;;
78772;SDS011;68111;44.728;11.290;2023-12-20T04:02:45;19.80;;;11.85;;
78772;SDS011;68111;44.728;11.290;2023-12-20T04:05:12;19.00;;;11.23;;
78772;SDS011;68111;44.728;11.290;2023-12-20T04:07:39;21.98;;;11.90;;
78772;SDS011;68111;44.728;11.290;2023-12-20T04:10:06;21.88;;;11.30;;
78772;SDS011;68111;44.728;11.290;2023-12-20T04:12:34;21.88;;;10.82;;
78772;SDS011;68111;44.728;11.290;2023-12-20T04:15:01;18.90;;;10.77;;
78772;SDS011;68111;44.728;11.290;2023-12-20T04:17:30;19.50;;;10.27;;
78772;SDS011;68111;44.728;11.290;2023-12-20T04:19:57;23.15;;;11.18;;
78772;SDS011;68111;44.728;11.290;2023-12-20T04:22:24;20.70;;;10.82;;
78772;SDS011;68111;44.728;11.290;2023-12-20T04:24:51;21.00;;;11.05;;
78772;SDS011;68111;44.728;11.290;2023-12-20T04:27:18;20.58;;;10.30;;
78772;SDS011;68111;44.728;11.290;2023-12-20T04:29:44;17.88;;;10.18;;
78772;SDS011;68111;44.728;11.290;2023-12-20T04:32:11;19.80;;;11.52;;
78772;SDS011;68111;44.728;11.290;2023-12-20T04:34:38;18.45;;;10.57;;
78772;SDS011;68111;44.728;11.290;2023-12-20T04:37:05;16.58;;;9.80;;
78772;SDS011;68111;44.728;11.290;2023-12-20T04:39:32;18.05;;;10.00;;
78772;SDS011;68111;44.728;11.290;2023-12-20T04:41:59;18.85;;;10.88;;
78772;SDS011;68111;44.728;11.290;2023-12-20T04:44:26;18.85;;;10.55;;
78772;SDS011;68111;44.728;11.290;2023-12-20T04:46:53;17.58;;;9.75;;
78772;SDS011;68111;44.728;11.290;2023-12-20T04:49:20;17.27;;;9.15;;
78772;SDS011;68111;44.728;11.290;2023-12-20T04:51:47;16.25;;;8.98;;
78772;SDS011;68111;44.728;11.290;2023-12-20T04:54:14;16.70;;;9.18;;
78772;SDS011;68111;44.728;11.290;2023-12-20T04:56:41;20.63;;;9.40;;
78772;SDS011;68111;44.728;11.290;2023-12-20T04:59:08;15.75;;;8.93;;
78772;SDS011;68111;44.728;11.290;2023-12-20T05:01:35;15.65;;;9.13;;
78772;SDS011;68111;44.728;11.290;2023-12-20T05:04:02;17.08;;;9.10;;
78772;SDS011;68111;44.728;11.290;2023-12-20T05:06:29;20.60;;;9.80;;
78772;SDS011;68111;44.728;11.290;2023-12-20T05:08:55;18.00;;;8.88;;
78772;SDS011;68111;44.728;11.290;2023-12-20T05:11:22;18.10;;;9.32;;
78772;SDS011;68111;44.728;11.290;2023-12-20T05:13:49;16.88;;;9.13;;
78772;SDS011;68111;44.728;11.290;2023-12-20T05:16:16;16.23;;;9.07;;
78772;SDS011;68111;44.728;11.290;2023-12-20T05:18:47;16.38;;;9.00;;
78772;SDS011;68111;44.728;11.290;2023-12-20T05:21:16;18.35;;;9.60;;
78772;SDS011;68111;44.728;11.290;2023-12-20T05:23:43;16.15;;;8.80;;
78772;SDS011;68111;44.728;11.290;2023-12-20T05:26:09;16.90;;;9.63;;
78772;SDS011;68111;44.728;11.290;2023-12-20T05:28:36;18.83;;;9.30;;
78772;SDS011;68111;44.728;11.290;2023-12-20T05:31:03;16.95;;;9.10;;
78772;SDS011;68111;44.728;11.290;2023-12-20T05:33:30;21.50;;;9.68;;
78772;SDS011;68111;44.728;11.290;2023-12-20T05:35:57;17.80;;;9.02;;
78772;SDS011;68111;44.728;11.290;2023-12-20T05:38:24;15.73;;;9.25;;
78772;SDS011;68111;44.728;11.290;2023-12-20T05:40:51;16.88;;;9.20;;
78772;SDS011;68111;44.728;11.290;2023-12-20T05:43:18;16.58;;;9.90;;
78772;SDS011;68111;44.728;11.290;2023-12-20T05:45:44;17.17;;;9.82;;
78772;SDS011;68111;44.728;11.290;2023-12-20T05:48:11;16.95;;;9.15;;
78772;SDS011;68111;44.728;11.290;2023-12-20T05:50:38;17.75;;;9.43;;
78772;SDS011;68111;44.728;11.290;2023-12-20T05:53:05;16.95;;;9.30;;
78772;SDS011;68111;44.728;11.290;2023-12-20T05:55:32;20.67;;;10.07;;
78772;SDS011;68111;44.728;11.290;2023-12-20T05:57:59;20.00;;;10.73;;
78772;SDS011;68111;44.728;11.290;2023-12-20T06:00:27;21.52;;;10.30;;
78772;SDS011;68111;44.728;11.290;2023-12-20T06:02:54;17.77;;;9.88;;
78772;SDS011;68111;44.728;11.290;2023-12-20T06:05:21;19.23;;;8.95;;
78772;SDS011;68111;44.728;11.290;2023-12-20T06:07:48;16.90;;;9.68;;
78772;SDS011;68111;44.728;11.290;2023-12-20T06:10:17;17.80;;;9.63;;
78772;SDS011;68111;44.728;11.290;2023-12-20T06:12:44;19.08;;;10.15;;
78772;SDS011;68111;44.728;11.290;2023-12-20T06:15:13;18.00;;;9.75;;
78772;SDS011;68111;44.728;11.290;2023-12-20T06:17:40;24.15;;;10.35;;
78772;SDS011;68111;44.728;11.290;2023-12-20T06:20:07;19.35;;;10.20;;
78772;SDS011;68111;44.728;11.290;2023-12-20T06:22:35;16.75;;;9.80;;
78772;SDS011;68111;44.728;11.290;2023-12-20T06:25:03;20.00;;;10.82;;
78772;SDS011;68111;44.728;11.290;2023-12-20T06:27:30;17.63;;;10.07;;
78772;SDS011;68111;44.728;11.290;2023-12-20T06:29:58;19.33;;;10.15;;
78772;SDS011;68111;44.728;11.290;2023-12-20T06:32:25;19.85;;;10.18;;
78772;SDS011;68111;44.728;11.290;2023-12-20T06:34:52;21.10;;;11.00;;
78772;SDS011;68111;44.728;11.290;2023-12-20T06:37:19;17.45;;;9.93;;
78772;SDS011;68111;44.728;11.290;2023-12-20T06:39:46;21.58;;;9.93;;
78772;SDS011;68111;44.728;11.290;2023-12-20T06:42:13;18.08;;;9.95;;
78772;SDS011;68111;44.728;11.290;2023-12-20T06:44:40;16.67;;;9.60;;
78772;SDS011;68111;44.728;11.290;2023-12-20T06:47:07;18.98;;;10.15;;
78772;SDS011;68111;44.728;11.290;2023-12-20T06:49:34;16.52;;;10.00;;
78772;SDS011;68111;44.728;11.290;2023-12-20T06:52:01;21.88;;;10.95;;
78772;SDS011;68111;44.728;11.290;2023-12-20T06:54:28;21.73;;;10.50;;
78772;SDS011;68111;44.728;11.290;2023-12-20T06:56:55;17.77;;;10.15;;
78772;SDS011;68111;44.728;11.290;2023-12-20T06:59:22;18.13;;;9.98;;
78772;SDS011;68111;44.728;11.290;2023-12-20T07:01:49;23.23;;;10.85;;
78772;SDS011;68111;44.728;11.290;2023-12-20T07:04:17;21.33;;;9.90;;
78772;SDS011;68111;44.728;11.290;2023-12-20T07:06:48;17.63;;;9.45;;
78772;SDS011;68111;44.728;11.290;2023-12-20T07:09:18;21.83;;;9.82;;
78772;SDS011;68111;44.728;11.290;2023-12-20T07:11:45;18.17;;;9.27;;
78772;SDS011;68111;44.728;11.290;2023-12-20T07:14:12;17.02;;;9.23;;
78772;SDS011;68111;44.728;11.290;2023-12-20T07:16:39;18.73;;;8.95;;
78772;SDS011;68111;44.728;11.290;2023-12-20T07:19:06;20.30;;;9.30;;
78772;SDS011;68111;44.728;11.290;2023-12-20T07:21:34;18.85;;;9.57;;
78772;SDS011;68111;44.728;11.290;2023-12-20T07:24:01;17.70;;;9.40;;
78772;SDS011;68111;44.728;11.290;2023-12-20T07:26:27;13.63;;;8.13;;
78772;SDS011;68111;44.728;11.290;2023-12-20T07:28:54;19.08;;;9.50;;
78772;SDS011;68111;44.728;11.290;2023-12-20T07:31:21;17.42;;;9.95;;
78772;SDS011;68111;44.728;11.290;2023-12-20T07:33:50;17.00;;;9.70;;
78772;SDS011;68111;44.728;11.290;2023-12-20T07:36:19;21.25;;;9.93;;
78772;SDS011;68111;44.728;11.290;2023-12-20T07:38:46;18.85;;;10.35;;
78772;SDS011;68111;44.728;11.290;2023-12-20T07:41:13;15.90;;;10.13;;
78772;SDS011;68111;44.728;11.290;2023-12-20T07:43:42;18.73;;;10.43;;
78772;SDS011;68111;44.728;11.290;2023-12-20T07:46:09;15.77;;;9.43;;
78772;SDS011;68111;44.728;11.290;2023-12-20T07:48:36;19.20;;;9.65;;
78772;SDS011;68111;44.728;11.290;2023-12-20T07:51:06;17.88;;;10.02;;
78772;SDS011;68111;44.728;11.290;2023-12-20T07:53:34;19.27;;;10.50;;
78772;SDS011;68111;44.728;11.290;2023-12-20T07:56:02;17.00;;;10.10;;
78772;SDS011;68111;44.728;11.290;2023-12-20T07:58:28;21.75;;;9.95;;
78772;SDS011;68111;44.728;11.290;2023-12-20T08:01:16;19.02;;;9.48;;
78772;SDS011;68111;44.728;11.290;2023-12-20T08:03:44;21.17;;;9.65;;
78772;SDS011;68111;44.728;11.290;2023-12-20T08:06:11;18.80;;;10.45;;
78772;SDS011;68111;44.728;11.290;2023-12-20T08:08:38;17.70;;;10.10;;
78772;SDS011;68111;44.728;11.290;2023-12-20T08:11:05;19.02;;;10.52;;
78772;SDS011;68111;44.728;11.290;2023-12-20T08:13:32;15.30;;;8.95;;
78772;SDS011;68111;44.728;11.290;2023-12-20T08:15:59;17.85;;;9.65;;
78772;SDS011;68111;44.728;11.290;2023-12-20T08:18:29;21.05;;;9.93;;
78772;SDS011;68111;44.728;11.290;2023-12-20T08:20:56;19.70;;;10.55;;
78772;SDS011;68111;44.728;11.290;2023-12-20T08:23:23;18.17;;;9.80;;
78772;SDS011;68111;44.728;11.290;2023-12-20T08:25:53;21.33;;;10.10;;
78772;SDS011;68111;44.728;11.290;2023-12-20T08:28:20;19.40;;;10.10;;
78772;SDS011;68111;44.728;11.290;2023-12-20T08:30:47;20.73;;;10.80;;
78772;SDS011;68111;44.728;11.290;2023-12-20T08:33:14;18.52;;;10.25;;
78772;SDS011;68111;44.728;11.290;2023-12-20T08:35:41;19.10;;;10.45;;
78772;SDS011;68111;44.728;11.290;2023-12-20T08:38:08;16.42;;;9.85;;
78772;SDS011;68111;44.728;11.290;2023-12-20T08:40:35;18.98;;;10.73;;
78772;SDS011;68111;44.728;11.290;2023-12-20T08:43:02;18.63;;;10.82;;
78772;SDS011;68111;44.728;11.290;2023-12-20T08:45:29;25.45;;;10.93;;
78772;SDS011;68111;44.728;11.290;2023-12-20T08:47:56;17.23;;;10.50;;
78772;SDS011;68111;44.728;11.290;2023-12-20T08:50:27;22.85;;;12.23;;
78772;SDS011;68111;44.728;11.290;2023-12-20T08:52:54;18.33;;;11.35;;
78772;SDS011;68111;44.728;11.290;2023-12-20T08:55:21;21.45;;;11.57;;
78772;SDS011;68111;44.728;11.290;2023-12-20T08:57:48;21.80;;;12.35;;
78772;SDS011;68111;44.728;11.290;2023-12-20T09:00:16;21.77;;;12.27;;
78772;SDS011;68111;44.728;11.290;2023-12-20T09:02:43;21.67;;;12.45;;
78772;SDS011;68111;44.728;11.290;2023-12-20T09:05:10;23.35;;;13.00;;
78772;SDS011;68111;44.728;11.290;2023-12-20T09:07:37;20.75;;;12.27;;
78772;SDS011;68111;44.728;11.290;2023-12-20T09:10:04;19.63;;;12.20;;
78772;SDS011;68111;44.728;11.290;2023-12-20T09:12:32;22.10;;;12.18;;
78772;SDS011;68111;44.728;11.290;2023-12-20T09:14:58;21.15;;;11.93;;
78772;SDS011;68111;44.728;11.290;2023-12-20T09:17:28;22.42;;;12.40;;
78772;SDS011;68111;44.728;11.290;2023-12-20T09:19:55;21.83;;;12.38;;
78772;SDS011;68111;44.728;11.290;2023-12-20T09:22:23;23.27;;;14.32;;
78772;SDS011;68111;44.728;11.290;2023-12-20T09:24:49;24.02;;;13.13;;
78772;SDS011;68111;44.728;11.290;2023-12-20T09:27:16;24.23;;;12.75;;
78772;SDS011;68111;44.728;11.290;2023-12-20T09:29:43;22.92;;;12.95;;
78772;SDS011;68111;44.728;11.290;2023-12-20T09:32:10;22.70;;;13.10;;
78772;SDS011;68111;44.728;11.290;2023-12-20T09:34:37;21.20;;;12.77;;
78772;SDS011;68111;44.728;11.290;2023-12-20T09:37:04;21.05;;;13.32;;
78772;SDS011;68111;44.728;11.290;2023-12-20T09:39:35;21.75;;;12.43;;
78772;SDS011;68111;44.728;11.290;2023-12-20T09:42:03;21.10;;;12.80;;
78772;SDS011;68111;44.728;11.290;2023-12-20T09:44:31;23.75;;;13.45;;
78772;SDS011;68111;44.728;11.290;2023-12-20T09:47:03;20.40;;;13.77;;
78772;SDS011;68111;44.728;11.290;2023-12-20T09:49:31;23.77;;;12.82;;
78772;SDS011;68111;44.728;11.290;2023-12-20T09:52:00;22.02;;;13.25;;
78772;SDS011;68111;44.728;11.290;2023-12-20T09:54:28;21.92;;;13.48;;
78772;SDS011;68111;44.728;11.290;2023-12-20T09:56:55;21.55;;;13.27;;
78772;SDS011;68111;44.728;11.290;2023-12-20T09:59:22;22.02;;;12.68;;
78772;SDS011;68111;44.728;11.290;2023-12-20T10:01:49;24.67;;;14.40;;
78772;SDS011;68111;44.728;11.290;2023-12-20T10:04:23;24.65;;;13.50;;
78772;SDS011;68111;44.728;11.290;2023-12-20T10:06:56;23.08;;;13.32;;
78772;SDS011;68111;44.728;11.290;2023-12-20T10:09:23;24.35;;;13.88;;
78772;SDS011;68111;44.728;11.290;2023-12-20T10:11:53;26.63;;;14.93;;
78772;SDS011;68111;44.728;11.290;2023-12-20T10:14:21;26.20;;;14.27;;
78772;SDS011;68111;44.728;11.290;2023-12-20T10:16:49;29.73;;;15.68;;
78772;SDS011;68111;44.728;11.290;2023-12-20T10:19:17;25.88;;;16.08;;
78772;SDS011;68111;44.728;11.290;2023-12-20T10:21:45;24.90;;;15.23;;
78772;SDS011;68111;44.728;11.290;2023-12-20T10:24:16;27.90;;;16.08;;
78772;SDS011;68111;44.728;11.290;2023-12-20T10:26:44;23.33;;;15.77;;
78772;SDS011;68111;44.728;11.290;2023-12-20T10:29:11;26.95;;;16.75;;
78772;SDS011;68111;44.728;11.290;2023-12-20T10:31:38;26.48;;;15.18;;
78772;SDS011;68111;44.728;11.290;2023-12-20T10:34:05;21.60;;;15.02;;
78772;SDS011;68111;44.728;11.290;2023-12-20T10:36:33;25.55;;;15.60;;
78772;SDS011;68111;44.728;11.290;2023-12-20T10:39:01;21.92;;;15.52;;
78772;SDS011;68111;44.728;11.290;2023-12-20T10:41:30;24.50;;;15.23;;
78772;SDS011;68111;44.728;11.290;2023-12-20T10:44:00;24.67;;;15.45;;
78772;SDS011;68111;44.728;11.290;2023-12-20T10:46:33;24.77;;;14.38;;
78772;SDS011;68111;44.728;11.290;2023-12-20T10:49:06;23.13;;;14.57;;
78772;SDS011;68111;44.728;11.290;2023-12-20T10:51:35;23.40;;;14.75;;
78772;SDS011;68111;44.728;11.290;2023-12-20T10:54:03;29.88;;;15.25;;
78772;SDS011;68111;44.728;11.290;2023-12-20T10:56:32;24.00;;;14.52;;
78772;SDS011;68111;44.728;11.290;2023-12-20T10:59:00;26.48;;;15.52;;
78772;SDS011;68111;44.728;11.290;2023-12-20T11:01:32;25.10;;;15.77;;
78772;SDS011;68111;44.728;11.290;2023-12-20T11:04:01;25.60;;;15.82;;
78772;SDS011;68111;44.728;11.290;2023-12-20T11:06:36;23.45;;;15.65;;
78772;SDS011;68111;44.728;11.290;2023-12-20T11:12:13;28.20;;;17.45;;
78772;SDS011;68111;44.728;11.290;2023-12-20T11:14:46;29.27;;;16.60;;
78772;SDS011;68111;44.728;11.290;2023-12-20T11:17:14;22.48;;;16.02;;
78772;SDS011;68111;44.728;11.290;2023-12-20T11:20:03;23.98;;;16.17;;
78772;SDS011;68111;44.728;11.290;2023-12-20T11:22:31;27.75;;;17.20;;
78772;SDS011;68111;44.728;11.290;2023-12-20T11:25:04;29.67;;;18.75;;
78772;SDS011;68111;44.728;11.290;2023-12-20T11:27:47;27.95;;;18.13;;
78772;SDS011;68111;44.728;11.290;2023-12-20T11:30:43;27.47;;;17.83;;
78772;SDS011;68111;44.728;11.290;2023-12-20T11:33:14;30.23;;;18.23;;
78772;SDS011;68111;44.728;11.290;2023-12-20T11:35:45;32.35;;;20.48;;
78772;SDS011;68111;44.728;11.290;2023-12-20T11:38:13;31.40;;;20.40;;
78772;SDS011;68111;44.728;11.290;2023-12-20T11:40:41;37.58;;;22.48;;
78772;SDS011;68111;44.728;11.290;2023-12-20T11:43:10;36.78;;;20.42;;
78772;SDS011;68111;44.728;11.290;2023-12-20T11:45:37;30.85;;;20.95;;
78772;SDS011;68111;44.728;11.290;2023-12-20T11:48:04;27.70;;;20.52;;
78772;SDS011;68111;44.728;11.290;2023-12-20T11:50:32;29.10;;;19.42;;
78772;SDS011;68111;44.728;11.290;2023-12-20T11:53:00;30.52;;;18.95;;
78772;SDS011;68111;44.728;11.290;2023-12-20T11:55:26;30.52;;;19.83;;
78772;SDS011;68111;44.728;11.290;2023-12-20T11:57:53;32.67;;;20.52;;
78772;SDS011;68111;44.728;11.290;2023-12-20T12:00:20;32.15;;;21.67;;
78772;SDS011;68111;44.728;11.290;2023-12-20T12:03:00;27.02;;;18.42;;
78772;SDS011;68111;44.728;11.290;2023-12-20T12:05:30;33.90;;;20.60;;
78772;SDS011;68111;44.728;11.290;2023-12-20T12:07:59;32.35;;;19.92;;
78772;SDS011;68111;44.728;11.290;2023-12-20T12:10:25;36.40;;;21.23;;
78772;SDS011;68111;44.728;11.290;2023-12-20T12:12:52;32.83;;;21.23;;
78772;SDS011;68111;44.728;11.290;2023-12-20T12:15:19;34.42;;;21.83;;
78772;SDS011;68111;44.728;11.290;2023-12-20T12:17:56;27.90;;;20.73;;
78772;SDS011;68111;44.728;11.290;2023-12-20T12:20:23;28.92;;;21.13;;
78772;SDS011;68111;44.728;11.290;2023-12-20T12:23:03;31.55;;;21.27;;
78772;SDS011;68111;44.728;11.290;2023-12-20T12:25:31;34.15;;;21.70;;
78772;SDS011;68111;44.728;11.290;2023-12-20T12:28:05;29.17;;;19.95;;
78772;SDS011;68111;44.728;11.290;2023-12-20T12:30:32;34.67;;;21.15;;
78772;SDS011;68111;44.728;11.290;2023-12-20T12:33:04;32.90;;;21.20;;
78772;SDS011;68111;44.728;11.290;2023-12-20T12:35:31;33.80;;;20.60;;
78772;SDS011;68111;44.728;11.290;2023-12-20T12:37:58;35.60;;;23.77;;
78772;SDS011;68111;44.728;11.290;2023-12-20T12:40:25;34.38;;;22.65;;
78772;SDS011;68111;44.728;11.290;2023-12-20T12:42:52;31.60;;;21.85;;
78772;SDS011;68111;44.728;11.290;2023-12-20T12:45:19;31.73;;;22.35;;
78772;SDS011;68111;44.728;11.290;2023-12-20T12:47:46;34.65;;;22.52;;
78772;SDS011;68111;44.728;11.290;2023-12-20T12:50:13;32.58;;;22.38;;
78772;SDS011;68111;44.728;11.290;2023-12-20T12:52:40;34.17;;;21.70;;
78772;SDS011;68111;44.728;11.290;2023-12-20T12:55:07;33.47;;;21.90;;
78772;SDS011;68111;44.728;11.290;2023-12-20T12:57:34;33.13;;;22.00;;
78772;SDS011;68111;44.728;11.290;2023-12-20T13:00:01;35.95;;;23.92;;
78772;SDS011;68111;44.728;11.290;2023-12-20T13:02:29;35.28;;;22.33;;
78772;SDS011;68111;44.728;11.290;2023-12-20T13:04:57;38.75;;;25.55;;
78772;SDS011;68111;44.728;11.290;2023-12-20T13:07:24;32.88;;;22.88;;
78772;SDS011;68111;44.728;11.290;2023-12-20T13:09:51;36.13;;;23.25;;
78772;SDS011;68111;44.728;11.290;2023-12-20T13:12:17;33.60;;;23.17;;
78772;SDS011;68111;44.728;11.290;2023-12-20T13:14:44;34.40;;;23.00;;
78772;SDS011;68111;44.728;11.290;2023-12-20T13:17:11;42.30;;;25.40;;
78772;SDS011;68111;44.728;11.290;2023-12-20T13:19:38;44.03;;;27.02;;
78772;SDS011;68111;44.728;11.290;2023-12-20T13:22:05;35.90;;;23.42;;
78772;SDS011;68111;44.728;11.290;2023-12-20T13:24:32;33.80;;;22.52;;
78772;SDS011;68111;44.728;11.290;2023-12-20T13:26:59;37.30;;;24.48;;
78772;SDS011;68111;44.728;11.290;2023-12-20T13:29:26;34.35;;;23.98;;
78772;SDS011;68111;44.728;11.290;2023-12-20T13:31:55;33.17;;;24.08;;
78772;SDS011;68111;44.728;11.290;2023-12-20T13:34:23;39.97;;;24.65;;
78772;SDS011;68111;44.728;11.290;2023-12-20T13:36:50;37.72;;;25.98;;
78772;SDS011;68111;44.728;11.290;2023-12-20T13:39:20;53.85;;;34.92;;
78772;SDS011;68111;44.728;11.290;2023-12-20T13:41:48;38.58;;;27.15;;
78772;SDS011;68111;44.728;11.290;2023-12-20T13:44:14;36.47;;;24.65;;
78772;SDS011;68111;44.728;11.290;2023-12-20T13:46:41;41.42;;;27.05;;
78772;SDS011;68111;44.728;11.290;2023-12-20T13:49:08;40.78;;;24.38;;
78772;SDS011;68111;44.728;11.290;2023-12-20T13:51:36;35.88;;;24.15;;
78772;SDS011;68111;44.728;11.290;2023-12-20T13:54:02;36.95;;;24.45;;
78772;SDS011;68111;44.728;11.290;2023-12-20T13:56:29;37.53;;;24.13;;
78772;SDS011;68111;44.728;11.290;2023-12-20T13:58:57;36.85;;;26.50;;
78772;SDS011;68111;44.728;11.290;2023-12-20T14:01:24;38.70;;;26.17;;
78772;SDS011;68111;44.728;11.290;2023-12-20T14:03:51;38.97;;;27.02;;
78772;SDS011;68111;44.728;11.290;2023-12-20T14:06:18;40.97;;;26.92;;
78772;SDS011;68111;44.728;11.290;2023-12-20T14:08:45;42.47;;;29.67;;
78772;SDS011;68111;44.728;11.290;2023-12-20T14:11:12;36.63;;;26.23;;
78772;SDS011;68111;44.728;11.290;2023-12-20T14:13:41;41.10;;;27.50;;
78772;SDS011;68111;44.728;11.290;2023-12-20T14:16:09;38.78;;;26.67;;
78772;SDS011;68111;44.728;11.290;2023-12-20T14:18:37;35.60;;;25.42;;
78772;SDS011;68111;44.728;11.290;2023-12-20T14:21:05;37.67;;;27.40;;